createdAt,value
2017-09-17T00:01:35.086Z,6.10
2017-09-17T00:04:02.678Z,7.03
2017-09-17T00:06:30.938Z,5.90
2017-09-17T00:08:59.215Z,6.43
2017-09-17T00:11:27.510Z,5.30
2017-09-17T00:13:55.070Z,5.00
2017-09-17T00:16:22.672Z,5.40
2017-09-17T00:18:50.186Z,4.63
2017-09-17T00:21:17.679Z,5.10
2017-09-17T00:23:46.047Z,5.10
2017-09-17T00:26:13.539Z,5.00
2017-09-17T00:28:41.047Z,5.80
2017-09-17T00:31:08.698Z,5.03
2017-09-17T00:33:36.327Z,4.70
2017-09-17T00:36:03.924Z,4.30
2017-09-17T00:38:31.474Z,4.40
2017-09-17T00:40:59.679Z,5.20
2017-09-17T00:43:27.171Z,4.73
2017-09-17T00:45:54.682Z,3.70
2017-09-17T00:48:22.387Z,4.83
2017-09-17T00:50:49.895Z,4.70
2017-09-17T00:53:17.547Z,4.50
2017-09-17T00:55:45.106Z,4.53
2017-09-17T00:58:12.604Z,4.60
2017-09-17T01:00:40.203Z,4.60
2017-09-17T01:03:08.482Z,4.70
2017-09-17T01:05:37.582Z,4.97
2017-09-17T01:08:05.842Z,5.80
2017-09-17T01:10:34.350Z,4.17
2017-09-17T01:13:02.833Z,5.07
2017-09-17T01:15:30.342Z,4.83
2017-09-17T01:17:57.854Z,5.03
2017-09-17T01:20:25.368Z,4.83
2017-09-17T01:22:52.943Z,5.53
2017-09-17T01:25:21.225Z,4.63
2017-09-17T01:27:49.732Z,6.53
2017-09-17T01:30:17.244Z,4.53
2017-09-17T01:32:45.468Z,5.17
2017-09-17T01:35:12.979Z,4.93
2017-09-17T01:37:40.475Z,4.47
2017-09-17T01:40:08.727Z,7.90
2017-09-17T01:42:37.100Z,11.53
2017-09-17T01:45:05.502Z,7.87
2017-09-17T01:47:33.079Z,9.40
2017-09-17T01:50:00.728Z,8.60
2017-09-17T01:52:28.278Z,8.17
2017-09-17T01:54:55.798Z,9.13
2017-09-17T01:57:23.291Z,6.97
2017-09-17T01:59:50.811Z,6.77
2017-09-17T02:02:18.416Z,5.17
2017-09-17T02:04:46.039Z,5.97
2017-09-17T02:07:14.351Z,4.80
2017-09-17T02:09:41.841Z,4.00
2017-09-17T02:12:09.355Z,4.00
2017-09-17T02:14:37.722Z,4.33
2017-09-17T02:17:06.734Z,4.13
2017-09-17T02:19:35.934Z,5.53
2017-09-17T02:22:03.547Z,5.00
2017-09-17T02:24:31.259Z,4.73
2017-09-17T02:26:59.611Z,4.37
2017-09-17T02:29:27.212Z,4.43
2017-09-17T02:31:54.735Z,5.40
2017-09-17T02:34:23.034Z,5.10
2017-09-17T02:36:50.587Z,4.50
2017-09-17T02:39:18.147Z,4.17
2017-09-17T02:41:45.711Z,4.00
2017-09-17T02:44:14.133Z,4.77
2017-09-17T02:46:42.568Z,4.63
2017-09-17T02:49:10.079Z,4.27
2017-09-17T02:51:38.460Z,5.00
2017-09-17T02:54:05.970Z,4.13
2017-09-17T02:56:33.518Z,4.67
2017-09-17T02:59:01.185Z,4.47
2017-09-17T03:01:28.738Z,4.33
2017-09-17T03:03:56.251Z,5.00
2017-09-17T03:06:23.759Z,5.63
2017-09-17T03:08:51.310Z,6.07
2017-09-17T03:11:19.567Z,5.13
2017-09-17T03:13:47.847Z,5.23
2017-09-17T03:16:16.109Z,4.77
2017-09-17T03:18:43.699Z,4.87
2017-09-17T03:21:11.270Z,4.97
2017-09-17T03:23:38.778Z,5.27
2017-09-17T03:26:06.374Z,5.00
2017-09-17T03:28:34.854Z,5.63
2017-09-17T03:31:05.153Z,5.40
2017-09-17T03:33:33.439Z,5.93
2017-09-17T03:36:01.700Z,4.80
2017-09-17T03:38:29.214Z,5.27
2017-09-17T03:40:56.711Z,4.63
2017-09-17T03:43:24.330Z,5.17
2017-09-17T03:45:51.918Z,4.90
2017-09-17T03:48:19.522Z,4.27
2017-09-17T03:50:48.650Z,4.43
2017-09-17T03:53:16.179Z,4.30
2017-09-17T03:55:43.679Z,3.70
2017-09-17T03:58:11.874Z,4.10
2017-09-17T04:00:39.479Z,4.37
2017-09-17T04:03:07.031Z,4.00
2017-09-17T04:05:34.591Z,4.70
2017-09-17T04:08:02.095Z,4.23
2017-09-17T04:10:29.608Z,3.60
2017-09-17T04:12:57.841Z,3.90
2017-09-17T04:15:25.386Z,3.93
2017-09-17T04:17:53.565Z,4.20
2017-09-17T04:20:21.175Z,3.70
2017-09-17T04:22:49.042Z,3.67
2017-09-17T04:25:17.514Z,4.33
2017-09-17T04:27:45.776Z,3.07
2017-09-17T04:30:14.171Z,3.80
2017-09-17T04:32:41.800Z,3.47
2017-09-17T04:35:09.594Z,3.30
2017-09-17T04:37:37.855Z,3.77
2017-09-17T04:40:06.151Z,4.37
2017-09-17T04:42:33.643Z,4.10
2017-09-17T04:45:01.883Z,3.60
2017-09-17T04:47:29.380Z,4.80
2017-09-17T04:49:57.824Z,4.60
2017-09-17T04:52:26.066Z,4.30
2017-09-17T04:54:54.370Z,5.33
2017-09-17T04:57:22.721Z,4.70
2017-09-17T04:59:50.858Z,4.30
2017-09-17T05:02:18.466Z,4.93
2017-09-17T05:04:46.743Z,5.23
2017-09-17T05:07:15.015Z,5.50
2017-09-17T05:09:43.302Z,5.27
2017-09-17T05:12:11.660Z,4.80
2017-09-17T05:14:39.160Z,4.33
2017-09-17T05:17:06.670Z,4.10
2017-09-17T05:19:34.162Z,4.40
2017-09-17T05:22:01.684Z,5.03
2017-09-17T05:24:29.279Z,5.07
2017-09-17T05:26:56.938Z,5.20
2017-09-17T05:29:24.436Z,4.93
2017-09-17T05:31:51.949Z,5.77
2017-09-17T05:34:20.216Z,4.80
2017-09-17T05:36:48.607Z,4.70
2017-09-17T05:39:16.818Z,4.63
2017-09-17T05:41:45.055Z,5.00
2017-09-17T05:44:12.551Z,4.70
2017-09-17T05:46:40.063Z,5.40
2017-09-17T05:49:09.271Z,5.00
2017-09-17T05:51:36.847Z,5.80
2017-09-17T05:54:04.392Z,6.57
2017-09-17T05:56:31.978Z,6.23
2017-09-17T05:58:59.507Z,5.60
2017-09-17T06:01:27.883Z,7.03
2017-09-17T06:03:55.441Z,8.30
2017-09-17T06:06:22.935Z,8.13
2017-09-17T06:08:50.462Z,7.90
2017-09-17T06:11:18.579Z,6.60
2017-09-17T06:13:46.294Z,10.37
2017-09-17T06:16:13.855Z,9.00
2017-09-17T06:18:41.411Z,8.53
2017-09-17T06:21:09.687Z,10.50
2017-09-17T06:23:37.203Z,10.47
2017-09-17T06:26:05.519Z,10.90
2017-09-17T06:28:33.082Z,12.20
2017-09-17T06:31:00.644Z,10.60
2017-09-17T06:33:28.170Z,10.50
2017-09-17T06:35:55.666Z,11.43
2017-09-17T06:38:23.186Z,10.60
2017-09-17T06:40:50.776Z,12.70
2017-09-17T06:43:18.294Z,11.63
2017-09-17T06:45:45.899Z,10.57
2017-09-17T06:48:13.419Z,11.13
2017-09-17T06:50:40.922Z,9.77
2017-09-17T06:53:08.570Z,10.77
2017-09-17T06:55:36.079Z,11.23
2017-09-17T06:58:03.634Z,10.83
2017-09-17T07:00:31.138Z,11.80
2017-09-17T07:02:58.707Z,12.97
2017-09-17T07:05:26.211Z,12.90
2017-09-17T07:07:53.737Z,12.50
2017-09-17T07:10:21.283Z,11.00
2017-09-17T07:12:48.938Z,12.03
2017-09-17T07:15:16.443Z,11.40
2017-09-17T07:17:44.153Z,11.53
2017-09-17T07:20:11.823Z,12.03
2017-09-17T07:22:39.330Z,14.43
2017-09-17T07:25:06.847Z,15.07
2017-09-17T07:27:34.351Z,13.10
2017-09-17T07:30:01.874Z,11.40
2017-09-17T07:32:29.374Z,12.00
2017-09-17T07:34:56.902Z,13.00
2017-09-17T07:37:25.110Z,10.60
2017-09-17T07:39:52.630Z,11.73
2017-09-17T07:42:20.156Z,10.83
2017-09-17T07:44:48.549Z,11.87
2017-09-17T07:47:17.123Z,11.20
2017-09-17T07:49:44.642Z,12.60
2017-09-17T07:52:12.887Z,11.47
2017-09-17T07:54:40.528Z,10.90
2017-09-17T07:57:08.036Z,11.87
2017-09-17T07:59:35.635Z,11.20
2017-09-17T08:02:03.207Z,10.63
2017-09-17T08:04:30.752Z,10.20
2017-09-17T08:06:58.359Z,11.50
2017-09-17T08:09:25.883Z,10.50
2017-09-17T08:11:53.431Z,9.30
2017-09-17T08:14:20.956Z,12.20
2017-09-17T08:16:49.459Z,10.90
2017-09-17T08:19:17.756Z,11.27
2017-09-17T08:21:46.099Z,10.30
2017-09-17T08:24:14.387Z,10.80
2017-09-17T08:26:42.659Z,9.87
2017-09-17T08:29:10.971Z,11.23
2017-09-17T08:31:38.521Z,10.90
2017-09-17T08:34:06.031Z,12.13
2017-09-17T08:36:33.559Z,11.70
2017-09-17T08:39:01.084Z,11.90
2017-09-17T08:41:28.643Z,11.37
2017-09-17T08:43:56.156Z,10.73
2017-09-17T08:46:23.758Z,11.27
2017-09-17T08:48:51.279Z,11.93
2017-09-17T08:51:18.894Z,12.20
2017-09-17T08:53:47.715Z,11.57
2017-09-17T08:56:15.259Z,11.67
2017-09-17T08:58:42.773Z,10.70
2017-09-17T09:01:11.070Z,10.33
2017-09-17T09:03:38.571Z,8.50
2017-09-17T09:06:06.189Z,8.80
2017-09-17T09:08:33.702Z,8.77
2017-09-17T09:11:02.003Z,8.00
2017-09-17T09:13:29.503Z,5.27
2017-09-17T09:15:57.022Z,6.53
2017-09-17T09:18:24.544Z,6.37
2017-09-17T09:20:52.048Z,6.10
2017-09-17T09:23:19.602Z,6.40
2017-09-17T09:25:47.999Z,7.40
2017-09-17T09:28:15.520Z,5.90
2017-09-17T09:30:43.817Z,6.03
2017-09-17T09:33:11.349Z,6.00
2017-09-17T09:35:39.618Z,4.27
2017-09-17T09:38:07.906Z,5.00
2017-09-17T09:40:36.198Z,3.90
2017-09-17T09:43:03.714Z,3.27
2017-09-17T09:45:31.210Z,3.53
2017-09-17T09:47:58.735Z,4.00
2017-09-17T09:50:26.330Z,3.50
2017-09-17T09:52:53.868Z,3.93
2017-09-17T09:55:22.135Z,3.20
2017-09-17T09:57:49.726Z,3.50
2017-09-17T10:00:17.243Z,3.40
2017-09-17T10:02:44.748Z,2.40
2017-09-17T10:05:12.299Z,2.90
2017-09-17T10:07:40.051Z,2.60
2017-09-17T10:10:08.331Z,3.43
2017-09-17T10:12:36.614Z,3.10
2017-09-17T10:15:04.136Z,3.03
2017-09-17T10:17:31.640Z,2.97
2017-09-17T10:19:59.158Z,3.13
2017-09-17T10:22:28.139Z,3.50
2017-09-17T10:24:55.668Z,3.00
2017-09-17T10:27:23.199Z,3.30
2017-09-17T10:29:50.712Z,3.20
2017-09-17T10:32:18.331Z,2.73
2017-09-17T10:34:45.907Z,2.80
2017-09-17T10:37:14.124Z,2.70
2017-09-17T10:39:42.939Z,2.50
2017-09-17T10:42:10.456Z,2.73
2017-09-17T10:44:38.057Z,3.00
2017-09-17T10:47:05.619Z,2.70
2017-09-17T10:49:33.123Z,2.67
2017-09-17T10:52:00.726Z,10.13
2017-09-17T10:54:28.995Z,3.97
2017-09-17T10:56:57.389Z,2.40
2017-09-17T10:59:24.902Z,2.10
2017-09-17T11:01:52.509Z,2.27
2017-09-17T11:04:20.063Z,2.77
2017-09-17T11:06:47.596Z,2.00
2017-09-17T11:09:15.907Z,1.70
2017-09-17T11:11:43.410Z,2.37
2017-09-17T11:14:10.949Z,2.07
2017-09-17T11:16:38.472Z,1.83
2017-09-17T11:19:05.987Z,1.70
2017-09-17T11:21:34.263Z,2.30
2017-09-17T11:24:01.783Z,1.47
2017-09-17T11:26:29.331Z,1.50
2017-09-17T11:28:56.852Z,1.63
2017-09-17T11:31:24.443Z,1.70
2017-09-17T11:33:51.959Z,1.57
2017-09-17T11:36:19.458Z,1.70
2017-09-17T11:38:47.018Z,1.73
2017-09-17T11:41:14.519Z,1.43
2017-09-17T11:43:42.134Z,1.50
2017-09-17T11:46:09.704Z,1.30
2017-09-17T11:48:37.227Z,1.30
2017-09-17T11:51:05.491Z,1.23
2017-09-17T11:53:33.024Z,0.70
2017-09-17T11:56:00.548Z,0.90
2017-09-17T11:58:28.142Z,0.80
2017-09-17T12:00:55.643Z,0.67
2017-09-17T12:03:23.915Z,0.80
2017-09-17T12:05:52.219Z,0.90
2017-09-17T12:08:19.827Z,1.00
2017-09-17T12:10:47.435Z,0.73
2017-09-17T12:13:14.991Z,1.10
2017-09-17T12:15:42.551Z,0.70
2017-09-17T12:18:10.111Z,0.93
2017-09-17T12:20:38.087Z,0.90
2017-09-17T12:23:05.643Z,0.73
2017-09-17T12:25:33.205Z,0.87
2017-09-17T12:28:00.712Z,0.70
2017-09-17T12:30:28.319Z,0.80
2017-09-17T12:32:55.823Z,0.60
2017-09-17T12:35:23.432Z,0.80
2017-09-17T12:37:50.974Z,0.70
2017-09-17T12:40:19.262Z,1.07
2017-09-17T12:42:46.830Z,0.97
2017-09-17T12:45:14.351Z,0.87
2017-09-17T12:47:41.863Z,0.93
2017-09-17T12:50:09.403Z,0.90
2017-09-17T12:52:36.958Z,0.80
2017-09-17T12:55:04.526Z,0.77
2017-09-17T12:57:32.030Z,0.70
2017-09-17T12:59:59.635Z,0.70
2017-09-17T13:02:27.863Z,0.80
2017-09-17T13:04:55.372Z,0.67
2017-09-17T13:07:22.891Z,0.90
2017-09-17T13:09:50.491Z,0.80
2017-09-17T13:12:18.003Z,1.50
2017-09-17T13:14:46.335Z,2.30
2017-09-17T13:17:13.851Z,2.17
2017-09-17T13:19:41.443Z,3.77
2017-09-17T13:22:08.958Z,7.10
2017-09-17T13:24:36.463Z,8.20
2017-09-17T13:27:04.019Z,6.90
2017-09-17T13:29:31.518Z,1.63
2017-09-17T13:31:59.135Z,1.00
2017-09-17T13:34:26.639Z,0.70
2017-09-17T13:36:54.183Z,0.93
2017-09-17T13:39:21.692Z,0.57
2017-09-17T13:41:49.955Z,0.77
2017-09-17T13:44:17.524Z,1.73
2017-09-17T13:46:45.791Z,1.77
2017-09-17T13:49:14.095Z,1.83
2017-09-17T13:51:42.019Z,1.10
2017-09-17T13:54:09.535Z,0.80
2017-09-17T13:56:37.847Z,0.70
2017-09-17T13:59:06.915Z,0.70
2017-09-17T14:14:57.794Z,1.10
2017-09-17T14:17:25.295Z,1.10
2017-09-17T14:19:52.816Z,0.80
2017-09-17T14:22:20.314Z,0.70
2017-09-17T14:24:47.914Z,0.90
2017-09-17T14:27:15.415Z,1.00
2017-09-17T14:29:42.936Z,0.77
2017-09-17T14:32:10.495Z,0.80
2017-09-17T14:34:38.023Z,0.63
2017-09-17T14:37:06.480Z,0.80
2017-09-17T14:39:34.004Z,0.90
2017-09-17T14:42:01.503Z,0.77
2017-09-17T14:44:29.024Z,0.97
2017-09-17T14:46:56.527Z,0.90
2017-09-17T14:49:24.227Z,1.20
2017-09-17T14:51:51.752Z,0.70
2017-09-17T14:54:20.035Z,0.90
2017-09-17T14:56:48.324Z,0.70
2017-09-17T14:59:15.828Z,0.70
2017-09-17T15:01:43.451Z,1.17
2017-09-17T15:04:10.955Z,1.10
2017-09-17T15:06:38.562Z,0.90
2017-09-17T15:09:06.670Z,1.43
2017-09-17T15:11:34.200Z,1.00
2017-09-17T15:14:02.551Z,0.77
2017-09-17T15:16:30.837Z,0.80
2017-09-17T15:18:59.103Z,1.23
2017-09-17T15:21:27.388Z,1.03
2017-09-17T15:23:55.655Z,1.00
2017-09-17T15:26:23.952Z,0.90
2017-09-17T15:28:51.455Z,0.93
2017-09-17T15:31:18.959Z,0.90
2017-09-17T15:33:47.258Z,0.80
2017-09-17T15:36:14.798Z,1.20
2017-09-17T15:38:42.367Z,1.20
2017-09-17T15:41:09.923Z,1.10
2017-09-17T15:43:37.435Z,1.13
2017-09-17T15:46:04.939Z,0.80
2017-09-17T15:48:32.535Z,1.00
2017-09-17T15:51:00.023Z,1.33
2017-09-17T15:53:27.544Z,1.10
2017-09-17T15:55:55.043Z,1.70
2017-09-17T15:58:23.331Z,2.70
2017-09-17T16:00:51.595Z,2.50
2017-09-17T16:03:19.899Z,1.90
2017-09-17T16:05:47.403Z,2.37
2017-09-17T16:08:14.919Z,3.40
2017-09-17T16:10:42.483Z,2.90
2017-09-17T16:13:10.148Z,2.80
2017-09-17T16:15:37.652Z,2.87
2017-09-17T16:18:05.180Z,2.60
2017-09-17T16:20:32.708Z,7.37
2017-09-17T16:23:00.227Z,2.77
2017-09-17T16:25:27.737Z,2.27
2017-09-17T16:27:55.259Z,1.80
2017-09-17T16:30:23.528Z,1.87
2017-09-17T16:32:51.063Z,1.20
2017-09-17T16:35:18.658Z,1.60
2017-09-17T16:37:46.936Z,3.93
2017-09-17T16:40:15.227Z,2.00
2017-09-17T16:42:43.090Z,2.40
2017-09-17T16:45:10.616Z,2.20
2017-09-17T16:47:38.124Z,2.00
2017-09-17T16:50:05.643Z,2.30
2017-09-17T16:52:33.909Z,2.63
2017-09-17T16:55:01.439Z,2.27
2017-09-17T16:57:28.954Z,3.30
2017-09-17T16:59:56.476Z,2.30
2017-09-17T17:02:24.080Z,1.80
2017-09-17T17:04:51.598Z,2.00
2017-09-17T17:07:19.104Z,2.80
2017-09-17T17:09:46.627Z,2.33
2017-09-17T17:12:14.900Z,1.40
2017-09-17T17:14:43.182Z,1.47
2017-09-17T17:17:11.484Z,1.20
2017-09-17T17:19:39.045Z,1.40
2017-09-17T17:22:06.540Z,1.17
2017-09-17T17:24:34.652Z,1.63
2017-09-17T17:27:02.944Z,1.30
2017-09-17T17:29:30.499Z,1.20
2017-09-17T17:31:58.366Z,1.70
2017-09-17T17:34:25.890Z,1.93
2017-09-17T17:36:53.471Z,1.40
2017-09-17T17:39:21.751Z,1.33
2017-09-17T17:41:50.019Z,1.40
2017-09-17T17:44:18.311Z,1.93
2017-09-17T17:46:45.815Z,1.50
2017-09-17T17:49:13.351Z,1.50
2017-09-17T17:51:40.846Z,1.70
2017-09-17T17:54:08.348Z,1.70
2017-09-17T17:56:35.872Z,1.67
2017-09-17T17:59:03.375Z,2.00
2017-09-17T18:01:30.896Z,2.50
2017-09-17T18:03:59.173Z,2.23
2017-09-17T18:06:27.462Z,1.80
2017-09-17T18:08:55.756Z,2.20
2017-09-17T18:11:23.275Z,3.43
2017-09-17T18:13:51.299Z,1.73
2017-09-17T18:16:18.836Z,2.47
2017-09-17T18:18:46.395Z,1.90
2017-09-17T18:21:13.916Z,3.10
2017-09-17T18:23:41.423Z,2.57
2017-09-17T18:26:08.947Z,3.03
2017-09-17T18:28:37.227Z,2.70
2017-09-17T18:31:05.515Z,1.83
2017-09-17T18:33:33.015Z,1.80
2017-09-17T18:36:00.530Z,1.40
2017-09-17T18:38:28.039Z,1.70
2017-09-17T18:40:55.563Z,2.33
2017-09-17T18:43:23.066Z,2.00
2017-09-17T18:45:50.588Z,2.80
2017-09-17T18:48:18.311Z,2.60
2017-09-17T18:50:52.374Z,2.47
2017-09-17T18:53:19.875Z,3.80
2017-09-17T18:55:48.158Z,2.47
2017-09-17T18:58:16.447Z,1.80
2017-09-17T19:00:43.979Z,2.47
2017-09-17T19:03:12.267Z,2.60
2017-09-17T19:05:40.548Z,2.20
2017-09-17T19:08:08.835Z,3.20
2017-09-17T19:10:36.391Z,2.33
2017-09-17T19:13:04.643Z,2.27
2017-09-17T19:15:32.147Z,1.93
2017-09-17T19:17:59.667Z,2.13
2017-09-17T19:20:27.931Z,2.00
2017-09-17T19:22:55.456Z,2.33
2017-09-17T19:25:22.963Z,2.80
2017-09-17T19:27:51.250Z,2.17
2017-09-17T19:30:18.757Z,2.23
2017-09-17T19:32:46.270Z,2.40
2017-09-17T19:35:13.775Z,3.10
2017-09-17T19:37:41.301Z,3.00
2017-09-17T19:40:08.823Z,2.80
2017-09-17T19:42:37.113Z,3.23
2017-09-17T19:45:05.580Z,3.10
2017-09-17T19:47:33.863Z,2.60
2017-09-17T19:50:02.135Z,2.17
2017-09-17T19:52:30.443Z,3.20
2017-09-17T19:54:57.947Z,3.70
2017-09-17T19:57:25.484Z,2.87
2017-09-17T19:59:52.994Z,3.00
2017-09-17T20:02:20.508Z,2.30
2017-09-17T20:04:48.035Z,2.67
2017-09-17T20:07:16.086Z,2.10
2017-09-17T20:09:43.663Z,2.37
2017-09-17T20:12:11.164Z,2.50
2017-09-17T20:14:40.203Z,2.40
2017-09-17T20:17:07.707Z,2.77
2017-09-17T20:19:35.228Z,2.67
2017-09-17T20:22:02.732Z,2.00
2017-09-17T20:24:30.247Z,2.50
2017-09-17T20:26:57.754Z,2.80
2017-09-17T20:29:25.276Z,2.60
2017-09-17T20:31:52.804Z,4.00
2017-09-17T20:34:20.366Z,2.70
2017-09-17T20:36:47.870Z,2.60
2017-09-17T20:39:15.751Z,2.77
2017-09-17T20:41:43.256Z,2.40
2017-09-17T20:44:10.779Z,2.30
2017-09-17T20:46:39.051Z,2.87
2017-09-17T20:49:07.342Z,3.10
2017-09-17T20:51:35.611Z,3.40
2017-09-17T20:54:03.895Z,2.30
2017-09-17T20:56:32.163Z,1.97
2017-09-17T20:59:00.442Z,2.20
2017-09-17T21:01:28.712Z,1.70
2017-09-17T21:03:56.999Z,2.53
2017-09-17T21:06:25.267Z,2.70
2017-09-17T21:08:53.555Z,2.20
2017-09-17T21:11:21.838Z,2.00
2017-09-17T21:13:49.364Z,2.50
2017-09-17T21:16:17.675Z,2.80
2017-09-17T21:18:45.235Z,2.70
2017-09-17T21:21:12.743Z,3.13
2017-09-17T21:23:42.475Z,2.30
2017-09-17T21:26:10.843Z,2.30
2017-09-17T21:28:38.348Z,2.90
2017-09-17T21:31:05.868Z,2.70
2017-09-17T21:33:34.130Z,2.53
2017-09-17T21:36:01.732Z,2.67
2017-09-17T21:38:29.246Z,2.80
2017-09-17T21:40:57.669Z,3.17
2017-09-17T21:43:25.175Z,2.90
2017-09-17T21:45:52.782Z,3.20
2017-09-17T21:48:20.283Z,3.00
2017-09-17T21:50:48.534Z,3.63
2017-09-17T21:53:16.039Z,3.07
2017-09-17T21:55:43.570Z,2.60
2017-09-17T21:58:11.076Z,2.43
2017-09-17T22:00:39.363Z,2.27
2017-09-17T22:03:06.931Z,2.10
2017-09-17T22:05:34.452Z,1.83
2017-09-17T22:08:01.951Z,2.13
2017-09-17T22:10:29.467Z,1.83
2017-09-17T22:12:57.738Z,2.30
2017-09-17T22:15:25.256Z,2.10
2017-09-17T22:17:52.757Z,1.80
2017-09-17T22:20:20.277Z,2.27
2017-09-17T22:22:47.815Z,1.90
2017-09-17T22:25:15.325Z,2.17
2017-09-17T22:27:42.870Z,2.00
2017-09-17T22:30:11.255Z,2.37
2017-09-17T22:32:38.768Z,2.30
2017-09-17T22:35:07.031Z,1.80
2017-09-17T22:37:35.357Z,1.80
2017-09-17T22:40:02.860Z,2.57
2017-09-17T22:42:31.147Z,2.00
2017-09-17T22:44:58.656Z,1.63
2017-09-17T22:47:26.895Z,2.10
2017-09-17T22:49:54.400Z,2.13
2017-09-17T22:52:21.932Z,1.60
2017-09-17T22:54:50.332Z,2.20
2017-09-17T22:57:17.959Z,1.83
2017-09-17T22:59:45.471Z,2.07
2017-09-17T23:02:13.754Z,1.97
2017-09-17T23:04:42.019Z,2.00
2017-09-17T23:07:10.303Z,2.30
2017-09-17T23:09:38.599Z,2.60
2017-09-17T23:12:06.115Z,2.57
2017-09-17T23:14:33.727Z,2.10
2017-09-17T23:17:01.275Z,2.87
2017-09-17T23:19:28.840Z,2.40
2017-09-17T23:21:56.360Z,2.53
2017-09-17T23:24:23.859Z,2.63
2017-09-17T23:26:51.406Z,2.23
2017-09-17T23:29:18.906Z,2.03
2017-09-17T23:31:46.426Z,2.77
2017-09-17T23:34:13.951Z,3.20
2017-09-17T23:36:41.534Z,2.80
2017-09-17T23:39:09.031Z,1.80
2017-09-17T23:41:36.547Z,2.10
2017-09-17T23:44:04.051Z,1.73
2017-09-17T23:46:31.572Z,1.60
2017-09-17T23:48:59.079Z,1.70
2017-09-17T23:51:26.687Z,2.23
2017-09-17T23:53:54.191Z,2.57
2017-09-17T23:56:21.695Z,2.00
2017-09-17T23:58:50.879Z,1.80
